createdAt,value
2018-03-26T00:00:31.907Z,25.9
2018-03-26T00:01:22.236Z,26
2018-03-26T00:02:12.426Z,25.9
2018-03-26T00:03:02.389Z,26
2018-03-26T00:03:51.852Z,26
2018-03-26T00:04:42.218Z,26
2018-03-26T00:05:32.276Z,26
2018-03-26T00:06:22.034Z,26
2018-03-26T00:07:12.924Z,26
2018-03-26T00:08:02.127Z,25.9
2018-03-26T00:08:52.598Z,26
2018-03-26T00:09:42.837Z,26
2018-03-26T00:10:32.257Z,26
2018-03-26T00:11:23.219Z,26
2018-03-26T00:12:13.285Z,26
2018-03-26T00:13:02.290Z,26
2018-03-26T00:13:53.115Z,26
2018-03-26T00:14:43.488Z,26
2018-03-26T00:15:32.956Z,26
2018-03-26T00:16:22.610Z,26
2018-03-26T00:17:13.341Z,26
2018-03-26T00:18:02.543Z,26
2018-03-26T00:18:52.923Z,26.1
2018-03-26T00:19:43.037Z,26.1
2018-03-26T00:20:32.731Z,26.1
2018-03-26T00:21:22.953Z,26
2018-03-26T00:22:13.489Z,26.1
2018-03-26T00:23:02.593Z,26.1
2018-03-26T00:23:53.599Z,26.1
2018-03-26T00:24:43.173Z,26.1
2018-03-26T00:25:33.529Z,26.1
2018-03-26T00:26:23.665Z,26.1
2018-03-26T00:27:13.098Z,26.1
2018-03-26T00:28:03.523Z,26.1
2018-03-26T00:28:53.458Z,26.1
2018-03-26T00:29:43.609Z,26.1
2018-03-26T00:30:34.049Z,26.1
2018-03-26T00:31:24.147Z,26.1
2018-03-26T00:32:14.090Z,26.1
2018-03-26T00:33:03.915Z,26.1
2018-03-26T00:33:54.497Z,26.1
2018-03-26T00:34:43.588Z,26.1
2018-03-26T00:35:34.132Z,26.1
2018-03-26T00:36:24.093Z,26.1
2018-03-26T00:37:14.147Z,26.1
2018-03-26T00:38:04.793Z,26.1
2018-03-26T00:38:54.345Z,26.1
2018-03-26T00:39:44.728Z,26.1
2018-03-26T00:40:34.086Z,26.1
2018-03-26T00:41:24.027Z,26.1
2018-03-26T00:42:14.474Z,26.1
2018-03-26T00:43:04.631Z,26.1
2018-03-26T00:43:54.405Z,26
2018-03-26T00:44:44.738Z,26
2018-03-26T00:45:35.000Z,26
2018-03-26T00:46:24.857Z,25.9
2018-03-26T00:47:15.095Z,25.9
2018-03-26T00:48:05.427Z,25.9
2018-03-26T00:48:55.762Z,25.8
2018-03-26T00:49:45.874Z,25.8
2018-03-26T00:50:35.627Z,25.8
2018-03-26T00:51:25.661Z,25.8
2018-03-26T00:52:16.015Z,25.7
2018-03-26T00:53:05.786Z,25.7
2018-03-26T00:53:55.816Z,25.7
2018-03-26T00:54:45.880Z,25.6
2018-03-26T00:55:35.946Z,25.6
2018-03-26T00:56:26.272Z,25.6
2018-03-26T00:57:16.046Z,25.6
2018-03-26T00:58:06.151Z,25.5
2018-03-26T00:58:56.456Z,25.5
2018-03-26T00:59:46.231Z,25.4
2018-03-26T01:00:36.302Z,25.4
2018-03-26T01:01:26.607Z,25.4
2018-03-26T01:02:16.664Z,25.4
2018-03-26T01:03:06.179Z,25.4
2018-03-26T01:03:56.511Z,25.4
2018-03-26T01:04:46.856Z,25.3
2018-03-26T01:05:36.654Z,25.3
2018-03-26T01:06:26.955Z,25.3
2018-03-26T01:07:17.058Z,25.3
2018-03-26T01:08:06.842Z,25.2
2018-03-26T01:08:56.579Z,25.2
2018-03-26T01:09:46.919Z,25.2
2018-03-26T01:10:37.262Z,25.2
2018-03-26T01:11:27.026Z,25.1
2018-03-26T01:12:17.085Z,25.1
2018-03-26T01:13:07.474Z,25.1
2018-03-26T01:13:57.470Z,25.1
2018-03-26T01:14:47.303Z,25.1
2018-03-26T01:15:37.021Z,25.1
2018-03-26T01:16:27.377Z,25
2018-03-26T01:17:17.716Z,25
2018-03-26T01:18:06.713Z,25
2018-03-26T01:18:56.688Z,25
2018-03-26T01:19:47.027Z,24.9
2018-03-26T01:20:37.379Z,24.9
2018-03-26T01:21:27.740Z,24.9
2018-03-26T01:22:17.291Z,24.9
2018-03-26T01:23:07.742Z,24.9
2018-03-26T01:23:57.409Z,24.9
2018-03-26T01:24:47.482Z,24.8
2018-03-26T01:25:37.751Z,24.8
2018-03-26T01:26:27.772Z,24.8
2018-03-26T01:27:16.965Z,24.8
2018-03-26T01:28:08.195Z,24.8
2018-03-26T01:28:57.462Z,24.8
2018-03-26T01:29:47.517Z,24.8
2018-03-26T01:30:38.077Z,24.7
2018-03-26T01:31:28.025Z,24.7
2018-03-26T01:32:17.990Z,24.7
2018-03-26T01:33:07.959Z,24.7
2018-03-26T01:33:58.177Z,24.7
2018-03-26T01:34:47.772Z,24.6
2018-03-26T01:35:38.202Z,24.6
2018-03-26T01:36:27.964Z,24.6
2018-03-26T01:37:18.512Z,24.6
2018-03-26T01:38:08.089Z,24.6
2018-03-26T01:38:58.306Z,24.6
2018-03-26T01:39:48.962Z,24.6
2018-03-26T01:40:38.645Z,24.6
2018-03-26T01:41:29.093Z,24.5
2018-03-26T01:42:19.167Z,24.5
2018-03-26T01:43:08.942Z,24.5
2018-03-26T01:43:59.263Z,24.4
2018-03-26T01:44:48.737Z,24.4
2018-03-26T01:45:39.098Z,24.4
2018-03-26T01:46:28.660Z,24.4
2018-03-26T01:47:19.056Z,24.4
2018-03-26T01:48:09.301Z,24.4
2018-03-26T01:48:59.224Z,24.4
2018-03-26T01:49:49.174Z,24.4
2018-03-26T01:50:38.654Z,24.3
2018-03-26T01:51:28.696Z,24.4
2018-03-26T01:52:19.853Z,24.4
2018-03-26T01:53:08.926Z,24.3
2018-03-26T01:53:59.951Z,24.3
2018-03-26T01:54:49.426Z,24.3
2018-03-26T01:55:39.575Z,24.3
2018-03-26T01:56:30.251Z,24.3
2018-03-26T01:57:19.205Z,24.3
2018-03-26T01:58:10.053Z,24.3
2018-03-26T01:58:59.670Z,24.3
2018-03-26T01:59:50.055Z,24.3
2018-03-26T02:00:40.123Z,24.3
2018-03-26T02:01:30.241Z,24.2
2018-03-26T02:02:20.033Z,24.2
2018-03-26T02:03:10.385Z,24.2
2018-03-26T02:04:00.048Z,24.2
2018-03-26T02:04:49.998Z,24.2
2018-03-26T02:05:40.261Z,24.1
2018-03-26T02:06:30.417Z,24.2
2018-03-26T02:07:20.090Z,24.1
2018-03-26T02:08:10.350Z,24.1
2018-03-26T02:09:00.121Z,24.1
2018-03-26T02:09:50.263Z,24.1
2018-03-26T02:10:41.105Z,24.1
2018-03-26T02:11:30.881Z,24.1
2018-03-26T02:12:20.726Z,24.1
2018-03-26T02:13:10.489Z,24
2018-03-26T02:14:00.738Z,24.1
2018-03-26T02:14:50.657Z,24
2018-03-26T02:15:41.140Z,24
2018-03-26T02:16:30.295Z,24
2018-03-26T02:17:21.273Z,24
2018-03-26T02:18:10.620Z,23.9
2018-03-26T02:19:01.432Z,23.9
2018-03-26T02:19:50.434Z,23.9
2018-03-26T02:20:41.485Z,23.9
2018-03-26T02:21:31.535Z,23.9
2018-03-26T02:22:20.801Z,23.9
2018-03-26T02:23:11.175Z,23.9
2018-03-26T02:24:01.210Z,23.9
2018-03-26T02:24:50.975Z,23.9
2018-03-26T02:25:41.230Z,23.9
2018-03-26T02:26:31.949Z,23.9
2018-03-26T02:27:21.344Z,23.9
2018-03-26T02:28:11.506Z,23.9
2018-03-26T02:29:01.284Z,23.8
2018-03-26T02:29:51.424Z,23.8
2018-03-26T02:30:41.487Z,23.8
2018-03-26T02:31:32.025Z,23.8
2018-03-26T02:32:22.077Z,23.8
2018-03-26T02:33:11.162Z,23.8
2018-03-26T02:34:01.403Z,23.8
2018-03-26T02:34:52.446Z,23.8
2018-03-26T02:35:41.821Z,23.8
2018-03-26T02:36:32.590Z,23.8
2018-03-26T02:37:21.548Z,23.8
2018-03-26T02:38:12.989Z,23.8
2018-03-26T02:39:02.264Z,23.7
2018-03-26T02:39:52.905Z,23.8
2018-03-26T02:40:42.391Z,23.7
2018-03-26T02:41:32.198Z,23.7
2018-03-26T02:42:22.774Z,23.6
2018-03-26T02:43:12.825Z,23.7
2018-03-26T02:44:02.793Z,23.6
2018-03-26T02:44:52.743Z,23.7
2018-03-26T02:45:42.902Z,23.6
2018-03-26T02:46:33.331Z,23.6
2018-03-26T02:47:23.108Z,23.6
2018-03-26T02:48:13.953Z,23.6
2018-03-26T02:49:03.015Z,23.6
2018-03-26T02:49:53.503Z,23.6
2018-03-26T02:50:44.064Z,23.6
2018-03-26T02:51:33.607Z,23.6
2018-03-26T02:52:23.380Z,23.6
2018-03-26T02:53:13.300Z,23.6
2018-03-26T02:54:03.773Z,23.6
2018-03-26T02:54:54.095Z,23.5
2018-03-26T02:55:43.568Z,23.5
2018-03-26T02:56:33.779Z,23.5
2018-03-26T02:57:23.802Z,23.5
2018-03-26T02:58:13.875Z,23.5
2018-03-26T02:59:04.429Z,23.4
2018-03-26T02:59:53.981Z,23.5
2018-03-26T03:00:44.027Z,23.4
2018-03-26T03:01:33.703Z,23.4
2018-03-26T03:02:24.924Z,23.4
2018-03-26T03:03:14.954Z,23.4
2018-03-26T03:04:04.733Z,23.4
2018-03-26T03:04:55.047Z,23.4
2018-03-26T03:05:45.150Z,23.4
2018-03-26T03:06:34.039Z,23.4
2018-03-26T03:07:24.949Z,23.4
2018-03-26T03:08:15.022Z,23.4
2018-03-26T03:09:05.342Z,23.4
2018-03-26T03:09:55.120Z,23.4
2018-03-26T03:10:45.464Z,23.4
2018-03-26T03:11:35.207Z,23.4
2018-03-26T03:12:25.587Z,23.4
2018-03-26T03:13:15.382Z,23.4
2018-03-26T03:14:05.682Z,23.3
2018-03-26T03:14:54.584Z,23.3
2018-03-26T03:15:45.800Z,23.3
2018-03-26T03:16:35.295Z,23.3
2018-03-26T03:17:25.904Z,23.3
2018-03-26T03:18:15.988Z,23.3
2018-03-26T03:19:05.536Z,23.3
2018-03-26T03:19:55.776Z,23.3
2018-03-26T03:20:45.841Z,23.3
2018-03-26T03:21:35.906Z,23.3
2018-03-26T03:22:26.234Z,23.3
2018-03-26T03:23:16.324Z,23.3
2018-03-26T03:24:06.065Z,23.3
2018-03-26T03:24:56.131Z,23.3
2018-03-26T03:25:46.012Z,23.3
2018-03-26T03:26:36.578Z,23.3
2018-03-26T03:27:26.046Z,23.2
2018-03-26T03:28:16.368Z,23.2
2018-03-26T03:29:05.967Z,23.2
2018-03-26T03:29:56.186Z,23.2
2018-03-26T03:30:45.787Z,23.2
2018-03-26T03:31:36.324Z,23.2
2018-03-26T03:32:25.503Z,23.2
2018-03-26T03:33:16.820Z,23.2
2018-03-26T03:34:06.314Z,23.2
2018-03-26T03:34:56.834Z,23.2
2018-03-26T03:35:47.176Z,23.1
2018-03-26T03:36:36.198Z,23.1
2018-03-26T03:37:26.808Z,23.1
2018-03-26T03:38:16.481Z,23.1
2018-03-26T03:39:06.821Z,23.1
2018-03-26T03:39:56.902Z,23.1
2018-03-26T03:40:46.753Z,23.1
2018-03-26T03:41:37.310Z,23.1
2018-03-26T03:42:26.855Z,23.1
2018-03-26T03:43:16.530Z,23.1
2018-03-26T03:44:06.687Z,23.1
2018-03-26T03:44:56.951Z,23.1
2018-03-26T03:45:45.919Z,23.1
2018-03-26T03:46:36.946Z,23.1
2018-03-26T03:47:27.184Z,23.1
2018-03-26T03:48:16.959Z,23.1
2018-03-26T03:49:07.408Z,23.1
2018-03-26T03:49:57.656Z,23.1
2018-03-26T03:50:48.208Z,23.1
2018-03-26T03:51:37.117Z,23.1
2018-03-26T03:52:27.829Z,23.1
2018-03-26T03:53:18.377Z,23.1
2018-03-26T03:54:07.927Z,23
2018-03-26T03:54:58.205Z,23.1
2018-03-26T03:55:48.064Z,23.1
2018-03-26T03:56:37.924Z,23
2018-03-26T03:57:27.878Z,23
2018-03-26T03:58:17.350Z,23
2018-03-26T03:59:07.958Z,23
2018-03-26T03:59:58.041Z,22.9
2018-03-26T04:00:47.533Z,22.9
2018-03-26T04:01:37.573Z,23
2018-03-26T04:02:28.216Z,22.9
2018-03-26T04:03:18.297Z,22.9
2018-03-26T04:04:08.250Z,22.9
2018-03-26T04:04:58.583Z,22.9
2018-03-26T04:05:48.348Z,22.9
2018-03-26T04:06:38.688Z,22.9
2018-03-26T04:07:28.262Z,22.9
2018-03-26T04:08:18.901Z,22.9
2018-03-26T04:09:08.678Z,22.9
2018-03-26T04:09:59.207Z,22.9
2018-03-26T04:10:48.083Z,22.9
2018-03-26T04:11:38.540Z,22.9
2018-03-26T04:12:29.436Z,22.9
2018-03-26T04:13:18.955Z,22.9
2018-03-26T04:14:09.095Z,22.9
2018-03-26T04:14:59.872Z,22.9
2018-03-26T04:15:49.061Z,22.8
2018-03-26T04:16:38.895Z,22.9
2018-03-26T04:17:29.335Z,22.8
2018-03-26T04:18:19.456Z,22.8
2018-03-26T04:19:09.855Z,22.8
2018-03-26T04:19:59.603Z,22.8
2018-03-26T04:20:49.665Z,22.8
2018-03-26T04:21:40.311Z,22.8
2018-03-26T04:22:29.797Z,22.8
2018-03-26T04:23:19.253Z,22.8
2018-03-26T04:24:09.689Z,22.8
2018-03-26T04:24:59.957Z,22.8
2018-03-26T04:25:49.825Z,22.8
2018-03-26T04:26:40.134Z,22.8
2018-03-26T04:27:30.111Z,22.8
2018-03-26T04:28:20.256Z,22.8
2018-03-26T04:29:09.839Z,22.8
2018-03-26T04:29:59.201Z,22.8
2018-03-26T04:30:50.442Z,22.8
2018-03-26T04:31:39.983Z,22.8
2018-03-26T04:32:30.362Z,22.7
2018-03-26T04:33:20.818Z,22.7
2018-03-26T04:34:10.678Z,22.7
2018-03-26T04:35:00.933Z,22.7
2018-03-26T04:35:50.393Z,22.7
2018-03-26T04:36:40.629Z,22.7
2018-03-26T04:37:31.181Z,22.7
2018-03-26T04:38:20.868Z,22.7
2018-03-26T04:39:11.198Z,22.6
2018-03-26T04:40:00.799Z,22.6
2018-03-26T04:40:51.075Z,22.6
2018-03-26T04:41:40.801Z,22.6
2018-03-26T04:42:30.866Z,22.6
2018-03-26T04:43:20.996Z,22.6
2018-03-26T04:44:10.566Z,22.6
2018-03-26T04:45:00.445Z,22.6
2018-03-26T04:45:51.378Z,22.6
2018-03-26T04:46:41.115Z,22.6
2018-03-26T04:47:32.051Z,22.6
2018-03-26T04:48:21.518Z,22.6
2018-03-26T04:49:11.608Z,22.6
2018-03-26T04:50:01.158Z,22.6
2018-03-26T04:50:51.418Z,22.6
2018-03-26T04:51:40.978Z,22.6
2018-03-26T04:52:31.525Z,22.6
2018-03-26T04:53:21.464Z,22.6
2018-03-26T04:54:11.749Z,22.5
2018-03-26T04:55:01.798Z,22.6
2018-03-26T04:55:52.590Z,22.6
2018-03-26T04:56:41.811Z,22.6
2018-03-26T04:57:31.970Z,22.5
2018-03-26T04:58:22.194Z,22.5
2018-03-26T04:59:12.110Z,22.5
2018-03-26T05:00:02.343Z,22.5
2018-03-26T05:00:51.491Z,22.5
2018-03-26T05:01:42.739Z,22.5
2018-03-26T05:02:32.231Z,22.5
2018-03-26T05:03:22.271Z,22.5
2018-03-26T05:04:12.879Z,22.5
2018-03-26T05:05:02.467Z,22.5
2018-03-26T05:05:52.799Z,22.5
2018-03-26T05:06:42.799Z,22.5
2018-03-26T05:07:32.821Z,22.4
2018-03-26T05:08:22.419Z,22.4
2018-03-26T05:09:12.756Z,22.5
2018-03-26T05:10:02.516Z,22.4
2018-03-26T05:10:52.002Z,22.4
2018-03-26T05:11:42.639Z,22.4
2018-03-26T05:12:32.590Z,22.4
2018-03-26T05:13:23.331Z,22.4
2018-03-26T05:14:13.260Z,22.4
2018-03-26T05:15:03.374Z,22.4
2018-03-26T05:15:53.405Z,22.4
2018-03-26T05:16:42.961Z,22.4
2018-03-26T20:17:47.076Z,20.2
2018-03-26T20:18:36.694Z,20.2
2018-03-26T20:19:27.084Z,20.2
2018-03-26T20:20:17.077Z,20.2
2018-03-26T20:21:06.573Z,20.2
2018-03-26T20:21:57.209Z,20.1
2018-03-26T20:22:47.253Z,20.2
2018-03-26T20:23:37.026Z,20.2
2018-03-26T20:24:27.421Z,20.2
2018-03-26T20:25:17.139Z,20.2
2018-03-26T20:26:07.261Z,20.2
2018-03-26T20:26:57.558Z,20.1
2018-03-26T20:27:47.643Z,20.2
2018-03-26T20:28:37.650Z,20.2
2018-03-26T20:29:27.716Z,20.2
2018-03-26T20:30:17.765Z,20.2
2018-03-26T20:31:06.876Z,20.1
2018-03-26T20:31:56.765Z,20.2
2018-03-26T20:32:47.225Z,20.2
2018-03-26T20:33:37.455Z,20.2
2018-03-26T20:34:27.510Z,20.2
2018-03-26T20:35:17.602Z,20.2
2018-03-26T20:36:07.634Z,20.2
2018-03-26T20:36:57.686Z,20.2
2018-03-26T20:37:47.539Z,20.2
2018-03-26T20:38:37.970Z,20.2
2018-03-26T20:39:27.948Z,20.1
2018-03-26T20:40:18.185Z,20.2
2018-03-26T20:41:08.738Z,20.1
2018-03-26T20:41:58.634Z,20.2
2018-03-26T20:42:48.635Z,20.2
2018-03-26T20:43:38.741Z,20.1
2018-03-26T20:44:28.735Z,20.1
2018-03-26T20:45:18.807Z,20.2
2018-03-26T20:46:08.914Z,20.2
2018-03-26T20:46:58.659Z,20.2
2018-03-26T20:47:48.710Z,20.2
2018-03-26T20:48:38.742Z,20.2
2018-03-26T20:49:29.106Z,20.2
2018-03-26T20:50:18.618Z,20.1
2018-03-26T20:51:08.657Z,20.1
2018-03-26T20:51:59.357Z,20.1
2018-03-26T20:52:49.387Z,20.1
2018-03-26T20:53:39.175Z,20.1
2018-03-26T20:54:29.444Z,20.2
2018-03-26T20:55:19.232Z,20.2
2018-03-26T20:56:09.574Z,20.1
2018-03-26T20:56:59.597Z,20.1
2018-03-26T20:57:49.674Z,20.1
2018-03-26T20:58:39.482Z,20.1
2018-03-26T20:59:29.786Z,20.1
2018-03-26T21:00:19.571Z,20.1
2018-03-26T21:01:09.635Z,20.1
2018-03-26T21:01:59.963Z,20.1
2018-03-26T21:02:49.741Z,20.1
2018-03-26T21:03:40.066Z,20.2
2018-03-26T21:04:30.156Z,20.1
2018-03-26T21:05:20.199Z,20.1
2018-03-26T21:06:10.591Z,20.1
2018-03-26T21:07:00.329Z,20.1
2018-03-26T21:07:50.141Z,20.1
2018-03-26T21:08:40.521Z,20.1
2018-03-26T21:09:30.488Z,20.1
2018-03-26T21:10:19.702Z,20.1
2018-03-26T21:11:10.581Z,20.1
2018-03-26T21:12:00.696Z,20.1
2018-03-26T21:12:50.715Z,20.1
2018-03-26T21:13:40.776Z,20.1
2018-03-26T21:14:30.888Z,20.1
2018-03-26T21:15:20.877Z,20.1
2018-03-26T21:16:10.397Z,20.1
2018-03-26T21:17:01.013Z,20.1
2018-03-26T21:17:50.793Z,20.1
2018-03-26T21:18:40.270Z,20.1
2018-03-26T21:19:31.231Z,20.1
2018-03-26T21:20:20.956Z,20.1
2018-03-26T21:21:11.285Z,20.1
2018-03-26T21:22:00.791Z,20.1
2018-03-26T21:22:51.375Z,20.1
2018-03-26T21:23:40.906Z,20.1
2018-03-26T21:24:31.346Z,20.1
2018-03-26T21:25:21.302Z,20.1
2018-03-26T21:26:11.348Z,20.1
2018-03-26T21:27:01.405Z,20.1
2018-03-26T21:27:51.452Z,20.1
2018-03-26T21:28:41.835Z,20.1
2018-03-26T21:29:31.864Z,20.1
2018-03-26T21:30:21.628Z,20.1
2018-03-26T21:31:11.970Z,20.1
2018-03-26T21:32:02.009Z,20.1
2018-03-26T21:32:52.080Z,20.1
2018-03-26T21:33:42.148Z,20.1
2018-03-26T21:34:31.968Z,20.1
2018-03-26T21:35:21.962Z,20.1
2018-03-26T21:36:11.749Z,20.1
2018-03-26T21:37:02.359Z,20.1
2018-03-26T21:37:52.443Z,20.1
2018-03-26T21:38:42.207Z,20.1
2018-03-26T21:39:32.539Z,20.1
2018-03-26T21:40:22.048Z,20.1
2018-03-26T21:41:11.920Z,20.1
2018-03-26T21:42:02.478Z,20.1
2018-03-26T21:42:52.322Z,20.1
2018-03-26T21:43:42.019Z,20.1
2018-03-26T21:44:32.047Z,20.1
2018-03-26T21:45:22.484Z,20.1
2018-03-26T21:46:12.179Z,20.1
2018-03-26T21:47:02.414Z,20.1
2018-03-26T21:47:52.881Z,20.1
2018-03-26T21:48:42.540Z,20.1
2018-03-26T21:49:32.392Z,20.1
2018-03-26T21:50:22.251Z,20.1
2018-03-26T21:51:12.801Z,20.1
2018-03-26T21:52:03.154Z,20.1
2018-03-26T21:52:53.315Z,20.1
2018-03-26T21:53:42.497Z,20.1
2018-03-26T21:54:33.021Z,20.1
2018-03-26T21:55:22.476Z,20
2018-03-26T21:56:12.392Z,20.1
2018-03-26T21:57:03.076Z,20.1
2018-03-26T21:57:52.961Z,20
2018-03-26T21:58:43.117Z,20
2018-03-26T21:59:33.369Z,20
2018-03-26T22:00:23.141Z,20
2018-03-26T22:01:12.993Z,20
2018-03-26T22:02:03.349Z,20
2018-03-26T22:02:53.599Z,20
2018-03-26T22:03:43.163Z,20
2018-03-26T22:04:33.241Z,20
2018-03-26T22:05:24.091Z,20
2018-03-26T22:06:14.224Z,20
2018-03-26T22:07:03.408Z,20
2018-03-26T22:07:54.226Z,20
2018-03-26T22:08:44.001Z,20
2018-03-26T22:09:34.398Z,20
2018-03-26T22:10:23.649Z,19.9
2018-03-26T22:11:13.908Z,20
2018-03-26T22:12:04.063Z,20
2018-03-26T22:12:54.574Z,20
2018-03-26T22:13:44.178Z,20
2018-03-26T22:14:34.123Z,20
2018-03-26T22:15:24.188Z,20
2018-03-26T22:16:14.316Z,20
2018-03-26T22:17:04.023Z,20
2018-03-26T22:17:54.738Z,19.9
2018-03-26T22:18:44.421Z,20
2018-03-26T22:19:34.860Z,20
2018-03-26T22:20:24.615Z,19.9
2018-03-26T22:21:15.262Z,19.9
2018-03-26T22:22:04.658Z,19.9
2018-03-26T22:22:54.394Z,20
2018-03-26T22:23:45.043Z,19.9
2018-03-26T22:24:35.197Z,19.9
2018-03-26T22:25:24.888Z,19.9
2018-03-26T22:26:15.425Z,19.9
2018-03-26T22:27:05.160Z,19.9
2018-03-26T22:27:55.060Z,19.9
2018-03-26T22:28:45.386Z,19.9
2018-03-26T22:29:35.172Z,20
2018-03-26T22:30:25.412Z,19.9
2018-03-26T22:31:15.159Z,19.9
2018-03-26T22:32:05.657Z,19.9
2018-03-26T22:32:55.189Z,19.9
2018-03-26T22:33:45.622Z,19.9
2018-03-26T22:34:35.485Z,19.9
2018-03-26T22:35:25.590Z,19.9
2018-03-26T22:36:15.127Z,19.9
2018-03-26T22:37:05.554Z,19.9
2018-03-26T22:37:55.921Z,19.9
2018-03-26T22:38:45.192Z,19.9
2018-03-26T22:39:35.551Z,19.9
2018-03-26T22:40:26.082Z,19.9
2018-03-26T22:41:15.987Z,19.9
2018-03-26T22:42:06.877Z,19.9
2018-03-26T22:42:56.111Z,19.9
2018-03-26T22:43:46.516Z,19.9
2018-03-26T22:44:36.583Z,19.9
2018-03-26T22:45:26.303Z,19.9
2018-03-26T22:46:16.291Z,19.9
2018-03-26T22:47:06.593Z,19.9
2018-03-26T22:47:56.026Z,19.9
2018-03-26T22:48:46.896Z,19.9
2018-03-26T22:49:37.420Z,19.9
2018-03-26T22:50:26.909Z,19.9
2018-03-26T22:51:16.647Z,19.9
2018-03-26T22:52:07.275Z,19.9
2018-03-26T22:52:57.068Z,19.9
2018-03-26T22:53:46.710Z,19.9
2018-03-26T22:54:36.963Z,19.9
2018-03-26T22:55:26.827Z,19.9
2018-03-26T22:56:17.171Z,19.9
2018-03-26T22:57:07.067Z,19.9
2018-03-26T22:57:57.200Z,19.9
2018-03-26T22:58:47.773Z,19.9
2018-03-26T22:59:37.810Z,19.9
2018-03-26T23:00:27.558Z,19.9
2018-03-26T23:01:17.031Z,19.9
2018-03-26T23:02:07.405Z,19.9
2018-03-26T23:02:57.452Z,19.9
2018-03-26T23:03:47.585Z,19.9
2018-03-26T23:04:37.964Z,19.9
2018-03-26T23:05:27.448Z,19.9
2018-03-26T23:06:17.802Z,19.9
2018-03-26T23:07:08.319Z,19.9
2018-03-26T23:07:57.694Z,19.9
2018-03-26T23:08:47.942Z,19.9
2018-03-26T23:09:37.712Z,19.9
2018-03-26T23:10:28.591Z,19.9
2018-03-26T23:11:17.607Z,19.9
2018-03-26T23:12:08.064Z,19.9
2018-03-26T23:12:58.101Z,19.8
2018-03-26T23:13:48.496Z,19.9
2018-03-26T23:14:38.555Z,19.9
2018-03-26T23:15:28.897Z,19.8
2018-03-26T23:16:18.186Z,19.8
2018-03-26T23:17:08.745Z,19.8
2018-03-26T23:17:58.772Z,19.9
2018-03-26T23:18:48.818Z,19.9
2018-03-26T23:19:38.416Z,19.9
2018-03-26T23:20:29.051Z,19.9
2018-03-26T23:21:19.278Z,19.8
2018-03-26T23:22:08.800Z,19.9
2018-03-26T23:22:59.434Z,19.8
2018-03-26T23:23:49.474Z,19.8
2018-03-26T23:24:39.336Z,19.8
2018-03-26T23:25:28.528Z,19.8
2018-03-26T23:26:19.356Z,19.9
2018-03-26T23:27:09.418Z,19.8
2018-03-26T23:27:59.469Z,19.8
2018-03-26T23:28:48.962Z,19.8
2018-03-26T23:29:39.596Z,19.8
2018-03-26T23:30:29.348Z,19.8
2018-03-26T23:31:19.027Z,19.8
2018-03-26T23:32:09.356Z,19.8
2018-03-26T23:32:59.956Z,19.8
2018-03-26T23:33:49.451Z,19.8
2018-03-26T23:34:39.809Z,19.8
2018-03-26T23:35:29.586Z,19.8
2018-03-26T23:36:20.396Z,19.8
2018-03-26T23:37:09.896Z,19.8
2018-03-26T23:37:59.356Z,19.8
2018-03-26T23:38:49.693Z,19.8
2018-03-26T23:39:40.378Z,19.8
2018-03-26T23:40:30.068Z,19.8
2018-03-26T23:41:20.191Z,19.8
2018-03-26T23:42:10.058Z,19.8
2018-03-26T23:43:00.230Z,19.8
2018-03-26T23:43:49.790Z,19.8
2018-03-26T23:44:40.423Z,19.8
2018-03-26T23:45:30.111Z,19.8
2018-03-26T23:46:19.963Z,19.8
2018-03-26T23:47:10.825Z,19.8
2018-03-26T23:48:00.170Z,19.8
2018-03-26T23:48:50.624Z,19.8
2018-03-26T23:49:40.969Z,19.8
2018-03-26T23:50:31.050Z,19.8
2018-03-26T23:51:21.364Z,19.8
2018-03-26T23:52:10.932Z,19.8
2018-03-26T23:53:00.708Z,19.8
2018-03-26T23:53:51.071Z,19.8
2018-03-26T23:54:40.853Z,19.8
2018-03-26T23:55:31.063Z,19.8
2018-03-26T23:56:21.222Z,19.8
2018-03-26T23:57:11.519Z,19.8
2018-03-26T23:58:01.067Z,19.8
2018-03-26T23:58:51.671Z,19.8
2018-03-26T23:59:41.474Z,19.8
